createdAt,value
2019-05-09T00:02:03.109Z,22.4
2019-05-09T00:07:03.342Z,22.8
2019-05-09T00:12:03.450Z,21.8
2019-05-09T00:17:03.421Z,21.7
2019-05-09T00:22:03.230Z,22.7
2019-05-09T00:27:03.561Z,23.6
2019-05-09T00:32:03.266Z,23.8
2019-05-09T00:37:03.066Z,24.4
2019-05-09T00:42:01.120Z,24.2
2019-05-09T00:47:01.203Z,23.8
2019-05-09T00:52:03.276Z,23.1
2019-05-09T00:57:03.157Z,23.2
2019-05-09T01:02:03.598Z,23.4
2019-05-09T01:07:03.161Z,23.2
2019-05-09T01:12:01.144Z,24.0
2019-05-09T01:17:01.218Z,24.7
2019-05-09T01:22:03.455Z,25.4
2019-05-09T01:27:03.347Z,26.0
2019-05-09T01:32:03.300Z,27.6
2019-05-09T01:37:03.253Z,27.1
2019-05-09T01:42:03.021Z,27.3
2019-05-09T01:47:03.349Z,26.8
2019-05-09T01:52:06.110Z,26.6
2019-05-09T01:57:06.190Z,25.3
2019-05-09T02:02:07.028Z,25.8
2019-05-09T02:07:01.163Z,26.2
2019-05-09T02:12:06.119Z,27.0
2019-05-09T02:17:06.249Z,27.2
2019-05-09T02:22:01.154Z,28.1
2019-05-09T02:27:06.226Z,28.8
2019-05-09T02:33:01.172Z,29.8
2019-05-09T02:38:01.132Z,30.0
2019-05-09T02:48:01.177Z,30.3
2019-05-09T02:53:01.186Z,30.0
2019-05-09T02:58:01.118Z,28.5
2019-05-09T03:03:08.806Z,28.7
2019-05-09T03:08:01.163Z,28.8
2019-05-09T03:13:08.994Z,27.3
2019-05-09T03:18:08.807Z,26.4
2019-05-09T03:23:01.205Z,28.0
2019-05-09T03:28:01.132Z,27.3
2019-05-09T03:33:01.177Z,27.2
2019-05-09T03:38:01.080Z,29.7
2019-05-09T03:43:01.174Z,29.8
2019-05-09T03:48:01.544Z,29.2
2019-05-09T03:53:01.246Z,32.6
2019-05-09T03:58:01.126Z,34.1
2019-05-09T04:03:01.184Z,35.4
2019-05-09T04:09:01.077Z,39.2
2019-05-09T04:14:01.181Z,40.9
2019-05-09T04:19:01.110Z,41.7
2019-05-09T04:24:01.103Z,41.9
2019-05-09T04:29:01.117Z,43.6
2019-05-09T04:34:01.243Z,44.0
2019-05-09T04:39:01.185Z,47.3
2019-05-09T04:44:04.938Z,48.0
2019-05-09T04:49:02.627Z,50.2
2019-05-09T04:54:01.182Z,51.4
2019-05-09T04:59:01.117Z,52.9
2019-05-09T05:04:01.115Z,51.4
2019-05-09T05:09:01.117Z,52.3
2019-05-09T05:14:01.168Z,54.0
2019-05-09T05:19:01.109Z,52.5
2019-05-09T05:24:01.175Z,51.1
2019-05-09T05:29:01.111Z,51.3
2019-05-09T05:34:04.022Z,50.6
2019-05-09T05:39:01.110Z,48.4
2019-05-09T05:44:01.240Z,49.0
2019-05-09T05:54:01.539Z,49.4
2019-05-09T05:59:01.137Z,48.8
2019-05-09T06:04:01.182Z,48.4
2019-05-09T06:09:01.148Z,47.8
2019-05-09T06:14:08.260Z,46.6
2019-05-09T06:19:01.135Z,45.1
2019-05-09T06:24:01.211Z,42.8
2019-05-09T06:29:01.144Z,41.6
2019-05-09T06:34:01.274Z,40.5
2019-05-09T06:39:01.146Z,41.2
2019-05-09T06:44:12.848Z,40.7
2019-05-09T06:49:19.793Z,42.1
2019-05-09T06:54:01.179Z,42.0
2019-05-09T06:59:01.109Z,41.4
2019-05-09T07:04:01.197Z,38.0
2019-05-09T07:09:08.300Z,37.2
2019-05-09T07:14:01.249Z,36.6
2019-05-09T07:19:07.955Z,35.9
2019-05-09T07:24:01.209Z,34.8
2019-05-09T07:29:01.144Z,35.5
2019-05-09T07:34:01.207Z,33.7
2019-05-09T07:39:01.151Z,31.3
2019-05-09T07:44:01.186Z,30.6
2019-05-09T07:49:07.836Z,29.9
2019-05-09T07:54:16.236Z,29.0
2019-05-09T07:59:01.074Z,28.3
2019-05-09T08:04:01.273Z,29.0
2019-05-09T08:09:08.310Z,28.3
2019-05-09T08:14:01.209Z,28.1
2019-05-09T08:19:01.147Z,27.9
2019-05-09T08:24:08.047Z,29.0
2019-05-09T08:29:09.136Z,29.3
2019-05-09T08:34:08.249Z,30.9
2019-05-09T08:39:08.071Z,31.3
2019-05-09T08:44:01.171Z,33.8
2019-05-09T08:49:01.170Z,34.2
2019-05-09T08:54:01.302Z,33.7
2019-05-09T08:59:02.292Z,31.6
2019-05-09T09:04:01.775Z,31.8
2019-05-09T09:09:01.136Z,31.4
2019-05-09T09:14:01.252Z,31.2
2019-05-09T09:19:01.119Z,31.4
2019-05-09T09:24:01.187Z,33.1
2019-05-09T09:29:01.124Z,32.9
2019-05-09T09:34:01.191Z,32.2
2019-05-09T09:39:02.939Z,31.6
2019-05-09T09:44:01.099Z,28.8
2019-05-09T09:49:01.112Z,26.6
2019-05-09T09:54:01.177Z,23.8
2019-05-09T09:59:07.685Z,20.7
2019-05-09T10:04:15.496Z,18.4
2019-05-09T10:09:01.126Z,17.6
2019-05-09T10:14:01.168Z,16.1
2019-05-09T10:24:01.218Z,16.4
2019-05-09T10:34:01.215Z,17.6
2019-05-09T10:39:01.145Z,18.1
2019-05-09T10:44:08.288Z,17.8
2019-05-09T10:49:01.138Z,17.6
2019-05-09T10:54:08.072Z,16.6
2019-05-09T10:59:07.740Z,16.2
2019-05-09T11:04:01.246Z,15.6
2019-05-09T11:09:01.075Z,16.1
2019-05-09T11:14:01.183Z,15.4
2019-05-09T11:19:01.127Z,15.7
2019-05-09T11:24:01.177Z,15.6
2019-05-09T11:29:01.144Z,16.2
2019-05-09T11:34:08.818Z,16.3
2019-05-09T11:39:01.236Z,16.2
2019-05-09T11:44:01.260Z,17.0
2019-05-09T11:49:01.145Z,16.7
2019-05-09T11:54:08.806Z,16.3
2019-05-09T11:59:01.112Z,16.1
2019-05-09T12:04:01.252Z,15.8
2019-05-09T12:09:01.725Z,14.8
2019-05-09T12:14:01.247Z,14.2
2019-05-09T12:19:01.108Z,14.0
2019-05-09T12:24:01.169Z,13.2
2019-05-09T12:29:01.137Z,12.9
2019-05-09T12:34:01.189Z,12.4
2019-05-09T12:39:08.672Z,12.2
2019-05-09T12:44:01.143Z,11.4
2019-05-09T12:54:01.195Z,10.6
2019-05-09T13:00:01.118Z,9.9
2019-05-09T13:05:01.224Z,9.3
2019-05-09T13:10:01.114Z,8.6
2019-05-09T13:15:01.311Z,8.0
2019-05-09T13:20:01.109Z,7.9
2019-05-09T13:25:02.901Z,7.7
2019-05-09T13:30:08.299Z,7.8
2019-05-09T13:35:01.227Z,7.6
2019-05-09T13:40:01.143Z,7.5
2019-05-09T13:45:08.228Z,7.8
2019-05-09T13:50:08.553Z,8.1
2019-05-09T13:55:01.229Z,8.2
2019-05-09T14:00:08.636Z,8.3
2019-05-09T14:05:01.218Z,8.0
2019-05-09T14:10:01.146Z,7.6
2019-05-09T14:15:02.188Z,7.0
2019-05-09T14:20:01.230Z,6.4
2019-05-09T14:25:01.171Z,6.0
2019-05-09T14:30:01.127Z,5.9
2019-05-09T14:40:04.064Z,6.7
2019-05-09T14:45:08.406Z,7.1
2019-05-09T14:50:06.132Z,7.6
2019-05-09T14:55:08.187Z,8.2
2019-05-09T15:00:02.185Z,8.6
2019-05-09T15:05:01.121Z,9.1
2019-05-09T15:10:01.156Z,9.3
2019-05-09T15:15:07.566Z,9.7
2019-05-09T15:20:08.430Z,9.6
2019-05-09T15:25:08.462Z,9.4
2019-05-09T15:30:01.149Z,9.3
2019-05-09T15:35:01.148Z,9.0
2019-05-09T15:40:01.152Z,9.4
2019-05-09T15:45:01.210Z,10.1
2019-05-09T15:50:15.425Z,11.8
2019-05-09T15:55:01.111Z,12.4
2019-05-09T16:00:01.144Z,13.4
2019-05-09T16:05:01.108Z,13.3
2019-05-09T16:10:01.142Z,14.1
2019-05-09T16:15:01.112Z,13.1
2019-05-09T16:20:01.141Z,13.5
2019-05-09T16:25:06.255Z,12.6
2019-05-09T16:30:08.400Z,11.8
2019-05-09T16:35:02.128Z,10.0
2019-05-09T16:40:01.113Z,8.9
2019-05-09T16:45:01.182Z,6.9
2019-05-09T16:50:01.147Z,6.2
2019-05-09T16:55:01.115Z,5.8
2019-05-09T17:00:01.380Z,5.8
2019-05-09T17:05:01.180Z,5.7
2019-05-09T17:10:01.110Z,5.5
2019-05-09T17:15:01.175Z,5.3
2019-05-09T17:20:01.108Z,5.4
2019-05-09T17:25:01.470Z,5.0
2019-05-09T17:30:01.129Z,5.0
2019-05-09T17:35:01.243Z,5.6
2019-05-09T17:40:01.119Z,6.0
2019-05-09T17:45:08.272Z,6.6
2019-05-09T17:50:01.152Z,8.0
2019-05-09T17:55:01.274Z,8.8
2019-05-09T18:00:01.153Z,9.2
2019-05-09T18:05:01.247Z,9.6
2019-05-09T18:10:01.107Z,9.9
2019-05-09T18:15:01.243Z,9.8
2019-05-09T18:20:01.118Z,9.9
2019-05-09T18:25:01.178Z,10.2
2019-05-09T18:30:01.114Z,10.6
2019-05-09T18:35:01.185Z,11.0
2019-05-09T18:40:01.123Z,10.8
2019-05-09T18:45:01.248Z,11.2
2019-05-09T18:50:01.087Z,11.3
2019-05-09T18:55:01.203Z,12.2
2019-05-09T19:00:01.145Z,12.9
2019-05-09T19:05:06.184Z,13.2
2019-05-09T19:10:06.136Z,13.5
2019-05-09T19:15:06.179Z,14.4
2019-05-09T19:20:01.080Z,15.4
2019-05-09T19:25:01.115Z,15.5
2019-05-09T19:30:01.084Z,16.4
2019-05-09T19:35:01.182Z,16.8
2019-05-09T19:40:01.118Z,17.2
2019-05-09T19:45:01.185Z,16.4
2019-05-09T19:51:01.099Z,16.3
2019-05-09T19:56:01.232Z,16.8
2019-05-09T20:01:02.063Z,17.8
2019-05-09T20:06:01.174Z,17.4
2019-05-09T20:11:01.111Z,17.7
2019-05-09T20:16:01.209Z,19.2
2019-05-09T20:21:01.142Z,19.4
2019-05-09T20:26:01.117Z,19.8
2019-05-09T20:31:01.124Z,21.5
2019-05-09T20:36:01.191Z,21.8
2019-05-09T20:46:01.188Z,21.2
2019-05-09T20:51:01.137Z,20.7
2019-05-09T20:56:06.182Z,19.8
2019-05-09T21:01:01.110Z,19.7
2019-05-09T21:06:01.264Z,19.3
2019-05-09T21:11:01.113Z,20.2
2019-05-09T21:16:01.117Z,21.2
2019-05-09T21:21:01.122Z,22.8
2019-05-09T21:26:01.280Z,22.9
2019-05-09T21:31:01.105Z,23.1
2019-05-09T21:36:02.202Z,22.2
2019-05-09T21:41:01.103Z,21.6
2019-05-09T21:46:01.238Z,18.8
2019-05-09T21:51:01.134Z,19.3
2019-05-09T21:56:01.177Z,19.4
2019-05-09T22:01:01.114Z,20.0
2019-05-09T22:11:01.114Z,22.0
2019-05-09T22:21:01.123Z,23.7
2019-05-09T22:26:01.237Z,24.6
2019-05-09T22:31:01.105Z,25.0
2019-05-09T22:36:01.111Z,25.4
2019-05-09T22:41:06.120Z,26.0
2019-05-09T22:46:01.182Z,24.9
2019-05-09T22:51:01.087Z,25.0
2019-05-09T22:56:06.251Z,27.0
2019-05-09T23:11:06.255Z,27.1
2019-05-09T23:16:06.196Z,26.6
2019-05-09T23:21:02.001Z,25.4
2019-05-09T23:26:01.245Z,25.3
2019-05-09T23:31:01.119Z,26.6
2019-05-09T23:36:01.271Z,27.2
2019-05-09T23:41:01.135Z,28.1
2019-05-09T23:46:01.181Z,27.5
2019-05-09T23:51:01.125Z,27.8
2019-05-09T23:56:01.186Z,28.2
